Time;durP1;ratioP1;P1;durP2;ratioP2;P2;SDS_P1;SDS_P2;PMS_P1;PMS_P2;Temp;Humidity;BMP_temperature;BMP_pressure;BME280_temperature;BME280_humidity;BME280_pressure;Samples;Min_cycle;Max_cycle;Signal;HPM_P1;HPM_P2
2023/10/24 00:00:24;;;;;;;8.35;1.95;;;19.20;96.70;;;;;;5008724;28;20495;-85
2023/10/24 00:02:52;;;;;;;8.43;1.83;;;19.30;96.70;;;;;;5007718;28;20053;-85
2023/10/24 00:05:20;;;;;;;8.85;1.95;;;19.30;96.70;;;;;;5008003;28;20042;-84
2023/10/24 00:07:49;;;;;;;8.48;1.95;;;19.30;96.70;;;;;;5008650;28;20061;-85
2023/10/24 00:10:18;;;;;;;5.55;1.75;;;19.30;96.70;;;;;;5005193;28;20689;-85
2023/10/24 00:12:46;;;;;;;10.40;2.13;;;19.30;96.70;;;;;;5008083;28;20057;-85
2023/10/24 00:15:15;;;;;;;8.65;2.42;;;19.30;96.70;;;;;;5005117;28;20050;-84
2023/10/24 00:17:43;;;;;;;9.80;2.10;;;19.30;96.70;;;;;;5007642;28;20054;-87
2023/10/24 00:20:12;;;;;;;6.00;1.92;;;19.30;96.70;;;;;;5007916;28;20041;-86
2023/10/24 00:22:43;;;;;;;8.10;2.33;;;19.30;96.70;;;;;;5009307;28;20049;-85
2023/10/24 00:25:14;;;;;;;7.38;1.95;;;19.40;96.70;;;;;;5008043;28;20049;-84
2023/10/24 00:27:43;;;;;;;8.50;1.95;;;19.40;96.70;;;;;;5009294;28;20037;-86
2023/10/24 00:30:14;;;;;;;7.38;1.90;;;19.40;96.70;;;;;;5009523;28;20140;-85
2023/10/24 00:32:49;;;;;;;14.18;2.22;;;19.40;96.70;;;;;;5013946;28;20542;-87
2023/10/24 00:35:20;;;;;;;9.85;2.20;;;19.40;96.70;;;;;;5004367;28;20508;-87
2023/10/24 00:37:49;;;;;;;13.23;2.25;;;19.40;96.70;;;;;;5007908;28;20050;-86
2023/10/24 00:40:20;;;;;;;9.82;1.95;;;19.40;96.70;;;;;;4991052;28;20042;-87
2023/10/24 00:42:52;;;;;;;7.45;1.67;;;19.40;96.70;;;;;;5008436;28;20042;-86
2023/10/24 00:45:22;;;;;;;8.73;2.42;;;19.40;96.70;;;;;;5007638;28;20495;-87
2023/10/24 00:47:54;;;;;;;8.50;2.03;;;19.40;96.70;;;;;;5009048;28;20156;-87
2023/10/24 00:50:24;;;;;;;5.60;2.00;;;19.40;96.70;;;;;;5007290;28;20046;-86
2023/10/24 00:56:38;;;;;;;9.85;2.40;;;19.30;96.70;;;;;;5007320;28;20526;-86
2023/10/24 00:59:09;;;;;;;3.22;1.52;;;19.30;96.70;;;;;;5007519;28;20050;-87
2023/10/24 01:01:40;;;;;;;6.82;1.67;;;19.30;96.70;;;;;;5006885;28;20054;-87
2023/10/24 01:04:12;;;;;;;6.28;1.80;;;19.30;96.70;;;;;;4990283;28;20050;-87
2023/10/24 01:06:42;;;;;;;7.15;1.88;;;19.20;96.70;;;;;;5007069;28;20054;-86
2023/10/24 01:09:11;;;;;;;7.25;1.67;;;19.20;96.70;;;;;;5008330;28;20129;-85
2023/10/24 01:11:41;;;;;;;11.88;2.03;;;19.20;96.70;;;;;;5008721;28;20045;-86
2023/10/24 01:14:11;;;;;;;5.43;1.80;;;19.20;96.70;;;;;;5006749;28;20046;-86
2023/10/24 01:16:45;;;;;;;6.57;1.50;;;19.20;96.70;;;;;;5007374;28;20762;-87
2023/10/24 01:19:16;;;;;;;8.30;2.20;;;19.10;96.70;;;;;;5008540;28;20085;-86
2023/10/24 01:21:48;;;;;;;8.00;2.45;;;19.10;96.70;;;;;;5007336;28;20054;-87
2023/10/24 01:24:18;;;;;;;7.38;2.03;;;19.10;96.70;;;;;;5007611;28;20147;-85
2023/10/24 01:26:50;;;;;;;9.50;1.80;;;19.20;96.70;;;;;;5002186;28;20038;-86
2023/10/24 01:29:19;;;;;;;6.93;2.03;;;19.10;96.70;;;;;;5007267;28;20038;-86
2023/10/24 01:31:48;;;;;;;11.40;2.40;;;19.10;96.70;;;;;;5007269;28;20045;-87
2023/10/24 01:34:16;;;;;;;11.68;1.92;;;19.10;96.70;;;;;;5008972;28;20507;-86
2023/10/24 01:36:46;;;;;;;9.63;2.22;;;19.10;96.70;;;;;;5006906;28;20503;-86
2023/10/24 01:39:14;;;;;;;6.95;1.40;;;19.10;96.70;;;;;;4999010;28;20492;-86
2023/10/24 01:41:43;;;;;;;10.27;2.00;;;19.10;96.70;;;;;;5009257;28;20048;-86
2023/10/24 01:44:12;;;;;;;6.30;1.70;;;19.10;96.70;;;;;;5007123;28;20049;-86
2023/10/24 01:46:40;;;;;;;9.95;1.85;;;19.10;96.70;;;;;;5008236;28;20101;-86
2023/10/24 01:49:09;;;;;;;7.85;1.75;;;19.00;96.70;;;;;;5007251;28;20046;-86
2023/10/24 01:51:40;;;;;;;8.38;1.77;;;19.00;96.70;;;;;;4991414;28;20100;-85
2023/10/24 01:54:11;;;;;;;15.68;2.40;;;19.00;96.70;;;;;;5003807;28;20100;-86
2023/10/24 01:56:42;;;;;;;7.15;2.33;;;19.00;96.70;;;;;;5001769;28;20046;-86
2023/10/24 01:59:11;;;;;;;8.05;2.20;;;19.00;96.70;;;;;;5006983;28;20060;-86
2023/10/24 02:01:41;;;;;;;7.80;1.80;;;19.00;96.70;;;;;;5005846;28;20045;-87
2023/10/24 02:04:11;;;;;;;7.45;1.55;;;19.00;96.70;;;;;;5008058;28;20046;-86
2023/10/24 02:06:42;;;;;;;6.82;1.63;;;19.00;96.70;;;;;;5006950;28;20525;-87
2023/10/24 02:09:14;;;;;;;8.07;1.90;;;19.00;96.70;;;;;;4991238;28;20135;-86
2023/10/24 02:11:44;;;;;;;4.65;1.90;;;19.00;96.70;;;;;;5007006;28;20064;-86
2023/10/24 02:14:14;;;;;;;9.05;2.53;;;19.00;96.70;;;;;;5006227;28;20050;-87
2023/10/24 02:16:45;;;;;;;5.93;1.60;;;18.90;96.70;;;;;;5007745;28;20081;-85
2023/10/24 02:19:14;;;;;;;8.48;2.20;;;18.90;96.70;;;;;;5001062;28;20077;-86
2023/10/24 02:21:43;;;;;;;6.97;2.08;;;18.90;96.70;;;;;;5005857;28;20702;-86
2023/10/24 02:24:13;;;;;;;10.20;2.72;;;18.90;96.70;;;;;;4993766;28;20054;-85
2023/10/24 02:26:43;;;;;;;6.97;1.88;;;18.90;96.70;;;;;;5007954;28;20068;-87
2023/10/24 02:29:12;;;;;;;7.57;2.28;;;18.90;96.70;;;;;;5002547;28;20113;-86
2023/10/24 02:31:42;;;;;;;10.18;2.17;;;18.90;96.70;;;;;;5004156;28;20049;-84
2023/10/24 02:34:12;;;;;;;6.05;1.92;;;18.90;96.70;;;;;;5002298;28;20052;-85
2023/10/24 02:36:41;;;;;;;10.00;2.00;;;18.90;96.70;;;;;;5008982;28;20056;-86
2023/10/24 02:39:14;;;;;;;9.95;2.15;;;19.00;96.70;;;;;;5009598;28;20054;-86
2023/10/24 02:41:43;;;;;;;9.52;1.85;;;19.00;96.70;;;;;;5008719;28;20030;-87
2023/10/24 02:44:11;;;;;;;9.57;2.33;;;19.00;96.70;;;;;;5005136;28;20080;-85
2023/10/24 02:46:41;;;;;;;9.00;2.03;;;19.00;96.70;;;;;;5009713;28;20052;-86
2023/10/24 02:49:10;;;;;;;11.40;2.55;;;19.00;96.70;;;;;;5009630;28;20050;-86
2023/10/24 02:51:38;;;;;;;7.00;1.55;;;19.00;96.70;;;;;;5010075;28;20050;-87
2023/10/24 02:54:08;;;;;;;6.57;1.75;;;19.00;96.70;;;;;;5001884;28;20511;-85
2023/10/24 02:56:38;;;;;;;10.23;2.42;;;19.00;96.70;;;;;;5009859;28;20042;-87
2023/10/24 02:59:07;;;;;;;11.35;1.90;;;19.10;96.70;;;;;;5009832;28;20053;-85
2023/10/24 03:01:37;;;;;;;9.68;1.95;;;19.10;96.70;;;;;;5009042;28;20075;-86
2023/10/24 03:04:08;;;;;;;8.27;1.30;;;19.10;96.70;;;;;;5009648;28;20053;-86
2023/10/24 03:06:41;;;;;;;9.77;2.90;;;19.10;96.70;;;;;;5024051;28;20081;-86
2023/10/24 03:09:12;;;;;;;9.75;1.95;;;19.10;96.70;;;;;;5010771;28;20125;-86
2023/10/24 03:11:44;;;;;;;11.85;2.25;;;19.20;96.70;;;;;;5003947;28;20038;-86
2023/10/24 03:14:15;;;;;;;8.48;1.85;;;19.20;96.70;;;;;;5007933;28;20042;-85
2023/10/24 03:16:47;;;;;;;9.95;2.45;;;19.20;96.70;;;;;;5010705;28;20052;-87
2023/10/24 03:19:16;;;;;;;9.93;2.00;;;19.20;96.70;;;;;;5013984;28;20100;-85
2023/10/24 03:21:45;;;;;;;6.85;1.90;;;19.30;96.70;;;;;;5004399;28;20045;-87
2023/10/24 03:24:16;;;;;;;8.57;1.92;;;19.30;96.70;;;;;;5009244;28;20061;-86
2023/10/24 03:26:47;;;;;;;10.98;1.98;;;19.30;96.70;;;;;;5024296;28;20057;-87
2023/10/24 03:29:15;;;;;;;12.10;2.50;;;19.30;96.70;;;;;;5000654;28;20049;-86
2023/10/24 03:31:45;;;;;;;11.60;2.35;;;19.40;96.70;;;;;;5004953;28;20061;-86
2023/10/24 03:34:15;;;;;;;7.45;1.77;;;19.40;96.70;;;;;;5009307;28;20049;-87
2023/10/24 03:36:46;;;;;;;11.10;2.13;;;19.40;96.70;;;;;;5008971;28;20045;-87
2023/10/24 03:39:15;;;;;;;11.20;1.77;;;19.40;96.70;;;;;;5008007;28;20053;-87
2023/10/24 03:41:45;;;;;;;10.00;1.90;;;19.40;96.70;;;;;;5001302;28;20046;-86
2023/10/24 03:44:14;;;;;;;10.43;3.22;;;19.40;96.70;;;;;;5009284;28;20073;-87
2023/10/24 03:46:43;;;;;;;10.48;2.25;;;19.50;96.70;;;;;;5013833;28;20046;-86
2023/10/24 03:49:14;;;;;;;9.55;2.05;;;19.50;96.70;;;;;;5012900;28;20495;-87
2023/10/24 03:51:46;;;;;;;10.80;1.98;;;19.50;96.70;;;;;;5008329;28;20523;-87
2023/10/24 03:54:17;;;;;;;12.05;2.03;;;19.50;96.70;;;;;;5001899;28;20046;-87
2023/10/24 03:56:50;;;;;;;11.70;1.88;;;19.50;96.70;;;;;;5008879;28;20491;-88
2023/10/24 03:59:24;;;;;;;9.93;1.95;;;19.50;96.70;;;;;;5008422;28;20056;-86
2023/10/24 04:01:53;;;;;;;9.35;2.25;;;19.50;96.70;;;;;;5001972;28;20050;-85
2023/10/24 04:04:22;;;;;;;9.43;2.50;;;19.50;96.70;;;;;;5017574;28;20058;-86
2023/10/24 04:06:52;;;;;;;8.52;1.83;;;19.50;96.70;;;;;;5007569;28;20478;-85
2023/10/24 04:09:21;;;;;;;9.40;1.95;;;19.50;96.70;;;;;;5003948;28;20041;-87
2023/10/24 04:12:07;;;;;;;5.78;1.98;;;19.50;96.70;;;;;;5008354;28;20542;-86
2023/10/24 04:14:35;;;;;;;9.57;2.30;;;19.50;96.70;;;;;;5008107;28;20128;-85
2023/10/24 04:17:07;;;;;;;8.35;1.95;;;19.50;96.70;;;;;;5006626;28;20053;-86
2023/10/24 04:19:38;;;;;;;8.05;1.90;;;19.50;96.70;;;;;;5004387;28;20045;-87
2023/10/24 04:22:11;;;;;;;8.30;1.73;;;19.50;96.70;;;;;;5008006;28;20049;-87
2023/10/24 04:24:40;;;;;;;13.95;2.15;;;19.50;96.70;;;;;;5009261;28;20049;-87
2023/10/24 04:27:12;;;;;;;7.78;2.05;;;19.40;96.70;;;;;;5008391;28;20574;-87
2023/10/24 04:29:42;;;;;;;10.40;2.28;;;19.50;96.70;;;;;;5007906;28;20136;-87
2023/10/24 04:32:10;;;;;;;8.10;2.25;;;19.50;96.70;;;;;;5008275;28;20503;-87
2023/10/24 04:34:40;;;;;;;8.25;1.83;;;19.50;96.70;;;;;;5009538;28;20046;-86
2023/10/24 04:37:11;;;;;;;10.00;1.60;;;19.50;96.70;;;;;;5008750;28;20041;-87
2023/10/24 04:39:43;;;;;;;9.13;2.33;;;19.50;96.70;;;;;;5008813;28;20137;-88
2023/10/24 04:42:16;;;;;;;11.68;2.00;;;19.50;96.70;;;;;;5007593;28;20559;-87
2023/10/24 04:44:45;;;;;;;10.90;1.83;;;19.50;96.70;;;;;;5007524;28;20054;-85
2023/10/24 04:47:13;;;;;;;11.82;2.20;;;19.50;96.70;;;;;;5007788;28;20072;-88
2023/10/24 04:49:41;;;;;;;10.00;2.08;;;19.50;96.70;;;;;;5007649;28;20538;-87
2023/10/24 04:52:12;;;;;;;5.45;1.92;;;19.50;96.70;;;;;;5007924;28;20986;-87
2023/10/24 04:54:48;;;;;;;11.05;1.80;;;19.50;96.70;;;;;;5008540;28;20034;-87
2023/10/24 04:57:20;;;;;;;12.52;2.03;;;19.50;96.70;;;;;;5007931;28;20077;-88
2023/10/24 04:59:50;;;;;;;14.35;2.28;;;19.50;96.70;;;;;;5008786;28;20069;-86
2023/10/24 05:02:20;;;;;;;8.48;1.70;;;19.50;96.70;;;;;;5008555;28;20708;-87
2023/10/24 05:04:49;;;;;;;12.40;2.63;;;19.50;96.70;;;;;;5005476;28;20073;-87
2023/10/24 05:07:19;;;;;;;9.02;1.88;;;19.50;96.70;;;;;;5004088;28;20056;-86
2023/10/24 05:09:50;;;;;;;12.93;2.83;;;19.50;96.70;;;;;;4998809;28;20126;-86
2023/10/24 05:12:22;;;;;;;10.88;2.42;;;19.50;96.70;;;;;;5006960;28;20061;-87
2023/10/24 05:14:52;;;;;;;10.98;2.33;;;19.50;96.70;;;;;;5000414;28;20049;-87
2023/10/24 05:17:24;;;;;;;10.35;2.45;;;19.50;96.70;;;;;;5007468;28;20053;-86
2023/10/24 05:19:54;;;;;;;9.48;2.42;;;19.50;96.70;;;;;;5007268;28;20056;-86
2023/10/24 05:22:24;;;;;;;14.65;3.17;;;19.50;96.70;;;;;;5008437;28;20042;-86
2023/10/24 05:24:54;;;;;;;5.88;2.10;;;19.50;96.70;;;;;;5007633;28;20128;-86
2023/10/24 05:27:27;;;;;;;11.93;2.80;;;19.50;96.70;;;;;;5023627;28;20046;-88
2023/10/24 05:29:58;;;;;;;7.68;2.20;;;19.50;96.70;;;;;;5003099;28;20049;-87
2023/10/24 05:32:27;;;;;;;10.52;2.40;;;19.50;96.70;;;;;;4990677;28;20819;-87
2023/10/24 05:34:57;;;;;;;10.05;2.50;;;19.50;96.70;;;;;;5007193;28;20041;-86
2023/10/24 05:37:27;;;;;;;13.68;2.72;;;19.50;96.70;;;;;;5008893;28;20152;-88
2023/10/24 05:39:57;;;;;;;12.38;2.42;;;19.50;96.70;;;;;;5002734;28;20049;-88
2023/10/24 05:42:29;;;;;;;8.35;2.28;;;19.50;96.70;;;;;;5011901;28;20053;-85
2023/10/24 05:45:00;;;;;;;14.27;2.17;;;19.40;96.70;;;;;;5008393;28;20093;-87
2023/10/24 05:47:29;;;;;;;12.07;2.25;;;19.40;96.70;;;;;;5007752;28;20120;-87
2023/10/24 05:49:59;;;;;;;14.43;2.50;;;19.50;96.70;;;;;;5007389;28;20046;-87
2023/10/24 05:52:31;;;;;;;10.55;2.28;;;19.50;96.70;;;;;;5008344;28;20042;-87
2023/10/24 05:55:02;;;;;;;10.77;2.28;;;19.50;96.70;;;;;;5007070;28;20042;-88
2023/10/24 05:57:35;;;;;;;11.38;3.22;;;19.50;96.70;;;;;;5007562;28;20053;-87
2023/10/24 06:00:07;;;;;;;18.02;3.63;;;19.50;96.70;;;;;;5008848;28;20050;-88
2023/10/24 06:02:37;;;;;;;9.98;3.03;;;19.60;96.70;;;;;;5011606;28;20100;-87
2023/10/24 06:05:08;;;;;;;15.05;3.70;;;19.60;96.70;;;;;;5011106;28;20054;-87
2023/10/24 06:07:39;;;;;;;13.25;3.47;;;19.60;96.70;;;;;;5011831;28;20041;-88
2023/10/24 06:10:09;;;;;;;7.55;3.00;;;19.60;96.70;;;;;;4994572;28;20146;-87
2023/10/24 06:12:41;;;;;;;10.93;2.95;;;19.60;96.70;;;;;;5012136;28;20073;-88
2023/10/24 06:15:12;;;;;;;15.52;3.67;;;19.60;96.70;;;;;;5010819;28;20046;-87
2023/10/24 06:17:43;;;;;;;11.27;2.70;;;19.60;96.70;;;;;;5010412;28;20136;-86
2023/10/24 06:20:13;;;;;;;15.65;3.10;;;19.70;96.70;;;;;;5011826;28;20120;-87
2023/10/24 06:22:43;;;;;;;12.80;3.10;;;19.70;96.70;;;;;;5009471;28;20350;-86
2023/10/24 06:25:14;;;;;;;12.68;3.13;;;19.70;96.70;;;;;;5010079;28;20073;-88
2023/10/24 06:27:47;;;;;;;14.52;3.15;;;19.70;96.70;;;;;;5009591;28;20042;-88
2023/10/24 06:30:18;;;;;;;16.08;3.58;;;19.70;96.70;;;;;;5009861;28;20069;-86
2023/10/24 06:32:49;;;;;;;13.43;3.33;;;19.80;96.70;;;;;;5007601;28;20069;-82
2023/10/24 06:35:17;;;;;;;14.30;3.67;;;19.80;96.70;;;;;;5009576;28;20050;-82
2023/10/24 06:37:46;;;;;;;14.30;3.70;;;19.80;96.70;;;;;;5009927;28;20045;-83
2023/10/24 06:40:18;;;;;;;12.55;3.17;;;19.80;96.70;;;;;;5009686;28;20719;-83
2023/10/24 06:42:52;;;;;;;13.55;3.97;;;19.80;96.70;;;;;;5009756;28;20038;-84
2023/10/24 06:45:24;;;;;;;11.48;3.05;;;19.80;96.70;;;;;;5010624;28;20630;-84
2023/10/24 06:47:58;;;;;;;11.32;3.28;;;19.80;96.70;;;;;;5010850;28;20788;-82
2023/10/24 06:50:29;;;;;;;17.50;3.42;;;19.80;96.70;;;;;;5010739;28;20072;-84
2023/10/24 06:52:59;;;;;;;15.88;3.58;;;19.80;96.70;;;;;;5009523;28;20050;-83
2023/10/24 06:55:32;;;;;;;13.40;3.58;;;19.80;96.70;;;;;;5009341;28;20054;-83
2023/10/24 06:58:11;;;;;;;16.15;4.18;;;19.80;96.70;;;;;;5010202;28;20038;-83
2023/10/24 07:00:45;;;;;;;14.95;3.67;;;19.80;96.70;;;;;;5008334;28;20050;-81
2023/10/24 07:03:15;;;;;;;13.75;3.30;;;19.70;96.70;;;;;;5008159;28;20045;-83
2023/10/24 07:05:50;;;;;;;20.63;4.15;;;19.70;96.70;;;;;;5009162;28;20042;-81
2023/10/24 07:08:20;;;;;;;22.27;4.60;;;19.70;96.70;;;;;;5008551;28;20052;-84
2023/10/24 07:10:50;;;;;;;20.65;5.07;;;19.70;96.70;;;;;;5010870;28;20123;-84
2023/10/24 07:13:22;;;;;;;20.08;5.45;;;19.70;96.70;;;;;;5010289;28;20046;-84
2023/10/24 07:15:54;;;;;;;22.92;5.80;;;19.70;96.70;;;;;;5010309;28;20535;-84
2023/10/24 07:18:25;;;;;;;19.52;6.55;;;19.60;96.70;;;;;;5011491;28;20046;-85
2023/10/24 07:20:58;;;;;;;20.83;5.90;;;19.60;96.70;;;;;;5028441;28;20041;-85
2023/10/24 07:23:27;;;;;;;24.35;6.00;;;19.60;96.70;;;;;;5012224;28;20080;-84
2023/10/24 07:25:57;;;;;;;24.83;6.32;;;19.60;96.70;;;;;;5009188;28;20521;-84
2023/10/24 07:28:28;;;;;;;25.85;6.13;;;19.60;96.70;;;;;;5000863;28;20050;-84
2023/10/24 07:30:58;;;;;;;17.65;5.40;;;19.60;96.70;;;;;;5008942;28;20053;-85
2023/10/24 07:33:27;;;;;;;13.80;3.53;;;19.60;96.70;;;;;;5011914;28;20050;-85
2023/10/24 07:36:03;;;;;;;14.05;3.58;;;19.60;96.70;;;;;;5009744;28;20045;-84
2023/10/24 07:38:32;;;;;;;12.27;3.37;;;19.60;96.70;;;;;;5008536;28;20053;-85
2023/10/24 07:41:02;;;;;;;15.35;3.40;;;19.60;96.70;;;;;;5008732;28;20315;-85
2023/10/24 07:43:35;;;;;;;9.77;2.83;;;19.60;96.70;;;;;;5006031;28;20050;-84
2023/10/24 07:46:06;;;;;;;17.50;3.03;;;19.60;96.70;;;;;;5008147;28;20050;-84
2023/10/24 07:48:36;;;;;;;16.70;4.35;;;19.60;96.70;;;;;;5009906;28;20052;-86
2023/10/24 07:51:10;;;;;;;28.38;4.70;;;19.60;96.70;;;;;;5008609;28;20041;-83
2023/10/24 07:53:41;;;;;;;33.70;6.40;;;19.60;96.70;;;;;;5010118;28;20045;-83
2023/10/24 07:56:11;;;;;;;29.80;5.97;;;19.80;96.70;;;;;;5008406;28;20046;-83
2023/10/24 07:58:43;;;;;;;21.70;4.10;;;20.00;96.70;;;;;;5008256;28;20100;-83
2023/10/24 08:01:14;;;;;;;17.77;3.75;;;20.20;96.70;;;;;;5008137;28;20045;-86
2023/10/24 08:03:45;;;;;;;18.27;4.63;;;20.30;96.70;;;;;;5008527;28;20057;-88
2023/10/24 08:06:15;;;;;;;17.30;3.95;;;20.40;96.70;;;;;;5008625;28;20046;-88
2023/10/24 08:08:47;;;;;;;28.92;5.55;;;20.50;96.70;;;;;;5009169;28;20053;-87
2023/10/24 08:11:17;;;;;;;21.65;5.40;;;20.60;96.70;;;;;;5008755;28;20518;-93
2023/10/24 08:13:49;;;;;;;54.38;7.53;;;20.70;96.70;;;;;;4992665;28;20057;-85
2023/10/24 08:16:20;;;;;;;35.55;5.70;;;20.70;96.70;;;;;;5007275;28;20068;-83
2023/10/24 08:18:49;;;;;;;41.42;7.43;;;20.80;96.70;;;;;;5008188;28;20042;-84
2023/10/24 08:21:17;;;;;;;33.67;4.88;;;20.90;96.70;;;;;;5007979;28;20042;-83
2023/10/24 08:23:45;;;;;;;26.00;5.00;;;20.90;96.70;;;;;;5007881;28;20045;-83
2023/10/24 08:26:15;;;;;;;23.70;5.90;;;20.90;96.70;;;;;;5009464;28;20136;-84
2023/10/24 08:28:45;;;;;;;23.48;5.35;;;20.90;96.70;;;;;;5001351;28;20550;-86
2023/10/24 08:31:21;;;;;;;17.30;5.05;;;20.90;96.70;;;;;;5008435;28;20056;-89
2023/10/24 08:33:50;;;;;;;28.38;6.20;;;20.90;96.70;;;;;;5007678;28;20062;-90
2023/10/24 08:36:19;;;;;;;24.98;5.22;;;21.00;96.70;;;;;;5007809;28;20042;-90
2023/10/24 08:38:47;;;;;;;18.98;4.88;;;20.90;96.70;;;;;;5008626;28;20050;-90
2023/10/24 08:41:16;;;;;;;24.30;5.30;;;21.00;96.70;;;;;;4989915;28;20042;-92
2023/10/24 08:43:45;;;;;;;20.15;4.63;;;20.90;96.70;;;;;;5009192;28;20148;-86
2023/10/24 08:46:15;;;;;;;18.45;4.25;;;20.90;96.70;;;;;;5009123;28;20041;-88
2023/10/24 08:48:50;;;;;;;21.55;4.50;;;20.90;96.70;;;;;;5008390;28;20550;-90
2023/10/24 08:52:07;;;;;;;18.17;3.30;;;20.90;96.70;;;;;;5004901;28;20064;-86
2023/10/24 08:55:00;;;;;;;16.80;4.55;;;21.00;96.70;;;;;;4965036;28;20220;-87
2023/10/24 08:57:33;;;;;;;22.67;4.35;;;21.00;96.70;;;;;;4970997;28;20105;-86
2023/10/24 09:00:02;;;;;;;17.58;4.05;;;21.00;96.70;;;;;;4970425;28;20141;-82
2023/10/24 09:02:31;;;;;;;35.17;11.18;;;21.00;96.70;;;;;;4970469;28;20050;-85
2023/10/24 09:05:01;;;;;;;28.95;5.38;;;20.90;96.70;;;;;;4970402;28;20057;-86
2023/10/24 09:07:30;;;;;;;31.50;5.72;;;21.00;96.70;;;;;;4971470;28;20100;-86
2023/10/24 09:09:58;;;;;;;26.30;6.05;;;21.00;96.70;;;;;;4971501;28;20046;-88
2023/10/24 09:12:29;;;;;;;20.65;5.82;;;21.00;96.70;;;;;;4979005;28;20092;-87
2023/10/24 09:14:58;;;;;;;22.00;5.43;;;21.00;96.70;;;;;;4978652;28;20650;-86
2023/10/24 09:17:30;;;;;;;23.42;6.43;;;21.10;96.70;;;;;;4954225;28;20043;-84
2023/10/24 09:20:00;;;;;;;20.20;5.05;;;21.10;96.70;;;;;;4994047;28;20084;-87
2023/10/24 09:22:29;;;;;;;25.85;5.68;;;21.10;96.70;;;;;;5007355;28;20052;-85
2023/10/24 09:24:58;;;;;;;24.45;5.45;;;21.10;96.70;;;;;;5008860;28;20068;-87
2023/10/24 09:27:29;;;;;;;22.00;4.60;;;21.10;96.70;;;;;;5015366;28;20049;-87
2023/10/24 09:29:57;;;;;;;19.70;4.32;;;21.10;96.70;;;;;;5006953;28;20072;-87
2023/10/24 09:32:27;;;;;;;18.60;4.85;;;21.10;96.70;;;;;;5007286;28;20133;-84
2023/10/24 09:35:13;;;;;;;27.20;6.60;;;21.10;96.70;;;;;;5006780;28;20069;-85
2023/10/24 09:37:46;;;;;;;19.92;4.53;;;21.10;96.70;;;;;;5003453;28;20057;-85
2023/10/24 09:40:17;;;;;;;16.25;4.18;;;21.20;96.70;;;;;;5012752;28;20077;-87
2023/10/24 09:42:51;;;;;;;15.98;4.10;;;21.20;96.70;;;;;;5011609;28;20446;-86
2023/10/24 09:45:23;;;;;;;23.25;5.28;;;21.20;96.70;;;;;;5011330;28;20462;-86
2023/10/24 09:47:54;;;;;;;25.40;6.13;;;21.20;96.70;;;;;;5002234;28;20954;-86
2023/10/24 09:50:30;;;;;;;21.67;5.60;;;21.30;96.70;;;;;;5012532;28;20381;-85
2023/10/24 09:53:01;;;;;;;23.73;5.40;;;21.30;96.70;;;;;;5011464;28;20050;-84
2023/10/24 09:55:32;;;;;;;25.92;5.47;;;21.30;96.70;;;;;;5010867;28;20080;-84
2023/10/24 09:58:04;;;;;;;21.65;4.38;;;21.30;96.70;;;;;;5012152;28;20045;-87
2023/10/24 10:00:34;;;;;;;20.95;4.40;;;21.50;96.70;;;;;;5011849;28;20046;-86
2023/10/24 10:03:06;;;;;;;24.00;5.15;;;21.50;96.70;;;;;;5014344;28;20081;-86
2023/10/24 10:05:40;;;;;;;19.40;3.85;;;21.50;96.70;;;;;;5010590;28;20483;-86
2023/10/24 10:08:12;;;;;;;15.77;5.15;;;21.40;96.70;;;;;;5020523;28;20600;-88
2023/10/24 10:10:43;;;;;;;19.70;4.28;;;21.40;96.70;;;;;;5003207;28;20054;-88
2023/10/24 10:13:20;;;;;;;20.17;5.68;;;21.40;96.70;;;;;;5011022;28;20042;-87
2023/10/24 10:16:06;;;;;;;20.52;5.70;;;21.40;96.70;;;;;;5010883;28;20605;-87
2023/10/24 10:18:57;;;;;;;22.05;4.93;;;21.40;96.70;;;;;;5003075;28;20049;-85
2023/10/24 10:21:39;;;;;;;18.65;4.40;;;21.40;96.70;;;;;;5011165;28;20050;-88
2023/10/24 10:24:36;;;;;;;26.10;4.57;;;21.40;96.70;;;;;;5012248;28;20483;-88
2023/10/24 10:27:20;;;;;;;17.58;4.78;;;21.40;96.70;;;;;;5011920;28;20049;-88
2023/10/24 10:30:02;;;;;;;21.25;4.60;;;20.60;96.70;;;;;;5010418;28;20046;-88
2023/10/24 10:33:09;;;;;;;19.65;4.63;;;20.00;96.70;;;;;;5010857;28;20558;-87
2023/10/24 10:35:52;;;;;;;18.60;4.65;;;19.60;96.70;;;;;;5007628;28;20046;-88
2023/10/24 10:38:36;;;;;;;29.73;5.57;;;19.40;96.70;;;;;;5014336;28;20495;-88
2023/10/24 10:41:40;;;;;;;26.63;5.22;;;19.20;96.70;;;;;;5011639;28;20046;-89
2023/10/24 10:44:38;;;;;;;24.25;5.82;;;19.00;96.70;;;;;;5013592;28;20049;-86
2023/10/24 10:47:14;;;;;;;25.45;5.22;;;18.80;96.70;;;;;;5016948;28;20096;-86
2023/10/24 10:49:48;;;;;;;21.73;4.72;;;18.70;96.70;;;;;;5009265;28;20034;-86
2023/10/24 10:52:41;;;;;;;29.77;5.70;;;18.60;96.70;;;;;;5011180;28;20084;-86
2023/10/24 10:55:26;;;;;;;17.67;4.38;;;18.50;96.70;;;;;;5009352;28;20136;-85
2023/10/24 10:58:11;;;;;;;23.20;4.97;;;18.40;96.70;;;;;;5010594;28;20116;-82
2023/10/24 11:00:58;;;;;;;16.65;4.28;;;18.30;96.70;;;;;;5002659;28;20077;-81
2023/10/24 11:03:39;;;;;;;12.65;3.35;;;18.30;96.70;;;;;;5009782;28;20511;-82
2023/10/24 11:06:14;;;;;;;12.30;3.15;;;18.30;96.70;;;;;;5009954;28;20050;-84
2023/10/24 11:09:07;;;;;;;10.52;3.00;;;18.30;96.70;;;;;;5012971;28;20552;-83
2023/10/24 11:11:40;;;;;;;15.57;3.88;;;18.30;96.70;;;;;;5018662;28;20061;-84
2023/10/24 11:14:19;;;;;;;16.13;4.22;;;18.30;96.70;;;;;;5001007;28;20093;-84
2023/10/24 11:16:48;;;;;;;14.52;4.05;;;18.40;96.70;;;;;;5008786;28;20070;-83
2023/10/24 11:19:20;;;;;;;15.27;3.83;;;18.40;96.70;;;;;;5009785;28;20046;-84
2023/10/24 11:21:52;;;;;;;14.23;4.55;;;18.50;96.70;;;;;;5009072;28;20056;-84
2023/10/24 11:24:21;;;;;;;16.52;3.92;;;18.60;96.70;;;;;;5002238;28;20060;-85
2023/10/24 11:26:55;;;;;;;12.75;3.40;;;18.70;96.70;;;;;;5018475;28;20050;-84
2023/10/24 11:29:23;;;;;;;19.17;3.85;;;18.80;96.70;;;;;;5008652;28;20143;-85
2023/10/24 11:31:51;;;;;;;13.68;3.35;;;18.90;96.70;;;;;;5009192;28;20156;-84
2023/10/24 11:34:19;;;;;;;17.67;3.47;;;19.10;96.70;;;;;;5009447;28;20137;-84
2023/10/24 11:36:48;;;;;;;15.13;3.83;;;19.20;96.70;;;;;;5017544;28;20048;-85
2023/10/24 11:39:16;;;;;;;16.55;4.05;;;19.30;96.70;;;;;;5009115;28;20054;-85
2023/10/24 11:41:44;;;;;;;15.27;3.88;;;19.40;96.70;;;;;;5008778;28;20065;-84
2023/10/24 11:44:17;;;;;;;18.88;3.50;;;19.50;96.70;;;;;;5008615;28;20049;-84
2023/10/24 11:46:45;;;;;;;16.40;3.70;;;19.50;96.70;;;;;;5007922;28;20056;-83
2023/10/24 11:49:13;;;;;;;20.70;4.05;;;19.50;96.70;;;;;;5009995;28;20511;-83
2023/10/24 11:51:42;;;;;;;22.05;3.95;;;19.60;96.70;;;;;;5009250;28;20100;-85
2023/10/24 11:54:11;;;;;;;17.17;3.63;;;19.60;96.70;;;;;;5013075;28;20037;-85
2023/10/24 11:56:40;;;;;;;20.40;4.70;;;19.60;96.70;;;;;;5011986;28;20112;-85
2023/10/24 11:59:11;;;;;;;18.05;3.58;;;19.60;96.70;;;;;;5008186;28;20042;-84
2023/10/24 12:01:43;;;;;;;16.65;4.32;;;19.70;96.70;;;;;;5009436;28;20054;-85
2023/10/24 12:04:12;;;;;;;22.83;4.10;;;19.80;96.70;;;;;;5008519;28;20093;-84
2023/10/24 12:06:41;;;;;;;22.13;4.25;;;19.90;96.70;;;;;;5013305;28;20064;-84
2023/10/24 12:09:10;;;;;;;20.35;3.92;;;19.90;96.70;;;;;;5021292;28;20045;-85
2023/10/24 12:11:38;;;;;;;16.58;3.65;;;19.80;96.70;;;;;;5008804;28;20045;-84
2023/10/24 12:14:06;;;;;;;16.48;3.53;;;19.80;96.70;;;;;;5008005;28;20050;-84
2023/10/24 12:16:39;;;;;;;22.83;4.75;;;19.80;96.70;;;;;;5009827;28;20053;-85
2023/10/24 12:19:24;;;;;;;19.17;3.67;;;19.80;96.70;;;;;;5008352;28;20053;-85
2023/10/24 12:21:53;;;;;;;17.75;3.22;;;19.70;96.70;;;;;;5010084;28;20100;-85
2023/10/24 12:24:21;;;;;;;19.95;3.38;;;19.70;96.70;;;;;;5008147;28;20392;-85
2023/10/24 12:26:50;;;;;;;16.23;3.78;;;19.70;96.70;;;;;;5006992;28;20074;-84
2023/10/24 12:29:18;;;;;;;18.65;3.75;;;19.60;96.70;;;;;;5007858;28;20038;-85
2023/10/24 12:31:46;;;;;;;17.35;3.97;;;19.60;96.70;;;;;;5008393;28;20104;-84
2023/10/24 12:34:15;;;;;;;21.08;3.85;;;19.60;96.70;;;;;;5008245;28;20054;-84
2023/10/24 12:36:46;;;;;;;18.40;4.03;;;19.60;96.70;;;;;;5009529;28;20046;-85
2023/10/24 12:39:17;;;;;;;20.70;4.18;;;19.70;96.70;;;;;;5007748;28;20080;-84
2023/10/24 12:41:45;;;;;;;15.57;3.58;;;19.70;96.70;;;;;;5008093;28;20503;-85
2023/10/24 12:44:13;;;;;;;18.60;3.63;;;19.70;96.70;;;;;;5013569;28;20099;-84
2023/10/24 12:46:41;;;;;;;19.13;4.30;;;19.80;96.70;;;;;;5009763;28;20049;-85
2023/10/24 12:49:10;;;;;;;18.58;3.75;;;19.80;96.70;;;;;;5007721;28;20334;-84
2023/10/24 12:51:38;;;;;;;19.20;3.67;;;19.80;96.70;;;;;;5008793;28;20054;-84
2023/10/24 12:54:08;;;;;;;18.63;4.15;;;19.80;96.70;;;;;;5014011;28;20050;-85
2023/10/24 12:56:37;;;;;;;17.05;3.97;;;19.90;96.70;;;;;;5008920;28;20110;-85
2023/10/24 12:59:05;;;;;;;20.20;3.88;;;19.90;96.70;;;;;;5008760;28;20104;-85
2023/10/24 13:01:34;;;;;;;18.90;4.45;;;19.80;96.70;;;;;;5007765;28;20407;-85
2023/10/24 13:04:03;;;;;;;17.80;3.97;;;19.80;96.70;;;;;;5007566;28;20061;-84
2023/10/24 13:06:33;;;;;;;20.30;4.30;;;19.80;96.70;;;;;;5007411;28;20049;-85